createdAt,value
2022-12-25T00:03:49.771Z,965.04
2022-12-25T00:08:51.016Z,964.99
2022-12-25T00:13:52.254Z,965.03
2022-12-25T00:18:54.508Z,965.15
2022-12-25T00:23:55.898Z,965.22
2022-12-25T00:28:57.067Z,965.36
2022-12-25T00:33:58.962Z,965.27
2022-12-25T00:39:01.086Z,965.18
2022-12-25T00:44:02.428Z,965.29
2022-12-25T00:49:04.264Z,965.31
2022-12-25T00:54:05.614Z,965.23
2022-12-25T00:59:06.667Z,965.26
2022-12-25T01:04:08.026Z,965.3
2022-12-25T01:09:09.550Z,965.32
2022-12-25T01:14:11.422Z,965.41
2022-12-25T01:19:12.964Z,965.36
2022-12-25T01:24:14.490Z,965.32
2022-12-25T01:29:16.627Z,965.32
2022-12-25T01:34:18.526Z,965.32
2022-12-25T01:39:20.046Z,965.32
2022-12-25T01:44:21.883Z,965.34
2022-12-25T01:49:23.424Z,965.31
2022-12-25T01:54:24.707Z,965.23
2022-12-25T01:59:26.371Z,965.19
2022-12-25T02:04:28.576Z,965.19
2022-12-25T02:09:29.840Z,965.19
2022-12-25T02:14:31.814Z,965.23
2022-12-25T02:19:34.066Z,965.21
2022-12-25T02:24:36.035Z,965.14
2022-12-25T02:29:38.047Z,965.14
2022-12-25T02:34:39.801Z,965.19
2022-12-25T02:39:41.238Z,965.21
2022-12-25T02:44:42.410Z,965.25
2022-12-25T02:49:43.853Z,965.2
2022-12-25T02:54:45.895Z,965.23
2022-12-25T02:59:47.486Z,965.21
2022-12-25T03:04:48.990Z,965.13
2022-12-25T03:09:50.658Z,965.15
2022-12-25T03:14:52.227Z,965.08
2022-12-25T03:19:54.077Z,965.13
2022-12-25T03:24:55.774Z,965.16
2022-12-25T03:29:57.524Z,965.13
2022-12-25T03:34:59.522Z,965.02
2022-12-25T03:40:01.200Z,965.02
2022-12-25T03:45:02.629Z,965
2022-12-25T03:50:04.544Z,964.94
2022-12-25T03:55:05.954Z,964.94
2022-12-25T04:00:07.480Z,964.88
2022-12-25T04:05:08.663Z,964.84
2022-12-25T04:10:10.008Z,964.82
2022-12-25T04:15:11.883Z,964.72
2022-12-25T04:20:13.500Z,964.63
2022-12-25T04:25:14.805Z,964.77
2022-12-25T04:30:16.890Z,964.78
2022-12-25T04:35:19.018Z,964.63
2022-12-25T04:40:20.601Z,964.77
2022-12-25T04:45:22.682Z,964.75
2022-12-25T04:50:23.971Z,964.71
2022-12-25T04:55:25.680Z,964.66
2022-12-25T05:00:27.266Z,964.62
2022-12-25T05:05:28.896Z,964.54
2022-12-25T05:10:30.427Z,964.7
2022-12-25T05:15:31.619Z,964.74
2022-12-25T05:20:38.113Z,964.7
2022-12-25T05:25:34.472Z,964.75
2022-12-25T05:30:36.595Z,964.66
2022-12-25T05:35:38.579Z,964.69
2022-12-25T05:50:50.464Z,964.56
2022-12-25T06:10:57.342Z,964.64
2022-12-25T06:15:58.988Z,964.59
2022-12-25T06:21:00.155Z,964.53
2022-12-25T06:26:02.126Z,964.55
2022-12-25T06:31:04.279Z,964.42
2022-12-25T06:36:05.929Z,964.47
2022-12-25T06:41:07.958Z,964.52
2022-12-25T06:46:09.958Z,964.49
2022-12-25T06:51:11.146Z,964.44
2022-12-25T06:56:13.242Z,964.35
2022-12-25T07:01:14.552Z,964.35
2022-12-25T07:06:17.216Z,964.38
2022-12-25T07:11:17.631Z,964.42
2022-12-25T07:16:19.049Z,964.48
2022-12-25T07:21:20.351Z,964.48
2022-12-25T07:26:22.201Z,964.38
2022-12-25T07:31:23.884Z,964.45
2022-12-25T07:36:25.527Z,964.37
2022-12-25T07:41:26.890Z,964.55
2022-12-25T07:46:28.409Z,964.45
2022-12-25T07:51:29.787Z,964.45
2022-12-25T07:56:31.484Z,964.45
2022-12-25T08:01:33.377Z,964.46
2022-12-25T08:06:34.495Z,964.4
2022-12-25T08:11:36.200Z,964.29
2022-12-25T08:16:38.077Z,964.29
2022-12-25T08:21:39.434Z,964.24
2022-12-25T08:26:41.393Z,964.25
2022-12-25T08:31:46.220Z,964.28
2022-12-25T08:36:45.247Z,964.26
2022-12-25T08:41:46.413Z,964.19
2022-12-25T08:46:47.668Z,964.29
2022-12-25T08:51:49.120Z,964.17
2022-12-25T08:56:50.473Z,964.12
2022-12-25T09:01:51.785Z,964.03
2022-12-25T09:06:53.557Z,963.94
2022-12-25T09:11:55.520Z,964.02
2022-12-25T09:16:56.984Z,964.05
2022-12-25T09:21:58.690Z,963.97
2022-12-25T09:26:59.968Z,964.05
2022-12-25T09:32:01.687Z,964
2022-12-25T09:37:03.163Z,964.04
2022-12-25T09:42:04.614Z,964.02
2022-12-25T09:47:06.609Z,963.95
2022-12-25T09:52:08.113Z,963.8
2022-12-25T09:57:09.958Z,963.81
2022-12-25T10:02:12.054Z,963.89
2022-12-25T10:07:13.747Z,963.92
2022-12-25T10:12:14.980Z,963.86
2022-12-25T10:17:16.944Z,963.88
2022-12-25T10:22:18.677Z,963.86
2022-12-25T10:27:19.882Z,963.78
2022-12-25T10:32:21.125Z,963.66
2022-12-25T10:37:22.774Z,963.52
2022-12-25T10:42:24.593Z,963.42
2022-12-25T10:47:26.527Z,963.34
2022-12-25T10:52:28.503Z,963.33
2022-12-25T10:57:30.305Z,963.27
2022-12-25T11:02:32.090Z,963.22
2022-12-25T11:07:33.951Z,963.17
2022-12-25T11:12:35.232Z,963.17
2022-12-25T11:17:37.217Z,963.24
2022-12-25T11:22:38.991Z,963.11
2022-12-25T11:27:40.181Z,963.11
2022-12-25T11:32:42.183Z,962.99
2022-12-25T11:37:43.959Z,962.98
2022-12-25T11:42:45.969Z,962.94
2022-12-25T11:47:47.698Z,962.83
2022-12-25T11:52:49.543Z,962.82
2022-12-25T11:57:51.215Z,962.84
2022-12-25T12:02:53.154Z,962.69
2022-12-25T12:07:54.211Z,962.59
2022-12-25T12:12:55.536Z,962.56
2022-12-25T12:17:57.269Z,962.51
2022-12-25T12:22:58.827Z,962.44
2022-12-25T12:28:05.109Z,962.33
2022-12-25T12:33:01.434Z,962.27
2022-12-25T12:38:02.758Z,962.21
2022-12-25T12:43:04.737Z,962.1
2022-12-25T12:48:06.072Z,962.13
2022-12-25T12:53:08.222Z,962.11
2022-12-25T12:58:10.359Z,962.04
2022-12-25T13:03:11.959Z,962.08
2022-12-25T13:08:13.963Z,962.07
2022-12-25T13:13:15.879Z,961.98
2022-12-25T13:18:17.177Z,962.03
2022-12-25T13:23:18.595Z,961.99
2022-12-25T13:28:19.963Z,961.98
2022-12-25T13:33:21.568Z,961.84
2022-12-25T13:38:22.976Z,961.75
2022-12-25T13:43:24.404Z,961.78
2022-12-25T13:48:26.208Z,961.85
2022-12-25T13:53:27.690Z,961.85
2022-12-25T13:58:29.380Z,961.9
2022-12-25T14:03:31.693Z,961.87
2022-12-25T14:08:33.274Z,961.88
2022-12-25T14:13:35.306Z,961.76
2022-12-25T14:18:36.679Z,961.73
2022-12-25T14:23:38.634Z,961.79
2022-12-25T14:28:40.241Z,961.62
2022-12-25T14:33:42.345Z,961.82
2022-12-25T14:38:44.398Z,961.86
2022-12-25T14:43:46.261Z,961.82
2022-12-25T14:48:48.011Z,961.92
2022-12-25T14:53:49.576Z,961.81
2022-12-25T14:58:51.161Z,961.8
2022-12-25T15:03:52.841Z,961.97
2022-12-25T15:08:54.756Z,961.9
2022-12-25T15:13:56.294Z,961.82
2022-12-25T15:18:57.546Z,961.84
2022-12-25T15:23:59.643Z,961.73
2022-12-25T15:29:00.991Z,961.75
2022-12-25T15:34:02.232Z,961.77
2022-12-25T15:39:03.632Z,961.95
2022-12-25T15:44:05.084Z,962
2022-12-25T15:49:06.864Z,961.96
2022-12-25T15:54:09.084Z,961.98
2022-12-25T15:59:10.673Z,961.98
2022-12-25T16:04:12.379Z,962
2022-12-25T16:09:13.956Z,961.97
2022-12-25T16:14:15.929Z,961.98
2022-12-25T16:19:17.517Z,961.98
2022-12-25T16:24:19.865Z,961.98
2022-12-25T16:29:21.428Z,962.01
2022-12-25T16:34:23.014Z,962.05
2022-12-25T16:39:24.235Z,962.06
2022-12-25T16:44:26.260Z,962.18
2022-12-25T16:49:27.951Z,962.04
2022-12-25T16:54:29.281Z,962.06
2022-12-25T16:59:31.271Z,962.12
2022-12-25T17:04:32.866Z,962.16
2022-12-25T17:09:37.561Z,962.12
2022-12-25T17:14:36.503Z,962.07
2022-12-25T17:19:38.238Z,962.08
2022-12-25T17:24:40.224Z,962.02
2022-12-25T17:29:41.359Z,961.93
2022-12-25T17:34:42.671Z,961.86
2022-12-25T17:39:43.999Z,961.86
2022-12-25T17:44:45.980Z,961.84
2022-12-25T17:49:47.729Z,961.87
2022-12-25T17:54:49.007Z,961.89
2022-12-25T17:59:50.365Z,961.96
2022-12-25T18:04:51.819Z,961.9
2022-12-25T18:09:53.317Z,962.05
2022-12-25T18:14:54.698Z,962.28
2022-12-25T18:19:56.561Z,962.28
2022-12-25T18:24:58.411Z,962.3
2022-12-25T18:30:00.537Z,962.32
2022-12-25T18:35:02.028Z,962.21
2022-12-25T18:40:04.177Z,962.24
2022-12-25T18:45:06.197Z,962.24
2022-12-25T18:50:07.417Z,962.37
2022-12-25T18:55:08.744Z,962.48
2022-12-25T19:00:10.314Z,962.55
2022-12-25T19:05:11.977Z,962.56
2022-12-25T19:10:13.590Z,962.54
2022-12-25T19:15:15.439Z,962.52
2022-12-25T19:20:16.798Z,962.46
2022-12-25T19:25:18.268Z,962.51
2022-12-25T19:30:19.647Z,962.49
2022-12-25T19:35:20.780Z,962.43
2022-12-25T19:40:22.341Z,962.49
2022-12-25T19:45:23.575Z,962.55
2022-12-25T19:50:24.868Z,962.53
2022-12-25T19:55:26.595Z,962.5
2022-12-25T20:00:28.791Z,962.42
2022-12-25T20:05:30.253Z,962.45
2022-12-25T20:10:32.260Z,962.36
2022-12-25T20:15:33.654Z,962.32
2022-12-25T20:20:35.373Z,962.44
2022-12-25T20:55:56.181Z,962.65
2022-12-25T21:10:51.854Z,962.67
2022-12-25T21:15:53.778Z,962.68
2022-12-25T21:46:03.619Z,963.19
2022-12-25T21:51:05.202Z,963.22
2022-12-25T21:56:07.364Z,963.3
2022-12-25T22:01:08.911Z,963.34
2022-12-25T22:06:10.579Z,963.3
2022-12-25T22:11:12.299Z,963.37
2022-12-25T22:16:13.636Z,963.46
2022-12-25T22:21:15.167Z,963.5
2022-12-25T22:26:20.741Z,963.44
2022-12-25T22:31:17.895Z,963.46
2022-12-25T22:36:25.521Z,963.42
2022-12-25T22:41:33.148Z,963.44
2022-12-25T22:46:29.127Z,963.47
2022-12-25T22:51:30.272Z,963.52
2022-12-25T22:56:31.862Z,963.5
2022-12-25T23:01:33.927Z,963.44
2022-12-25T23:06:35.177Z,963.5
2022-12-25T23:11:36.984Z,963.48
2022-12-25T23:16:38.835Z,963.4
2022-12-25T23:21:40.499Z,963.42
2022-12-25T23:26:42.512Z,963.54
2022-12-25T23:31:43.858Z,963.57
2022-12-25T23:36:45.227Z,963.54
2022-12-25T23:41:46.758Z,963.52
2022-12-25T23:46:52.444Z,963.51
2022-12-25T23:51:50.471Z,963.54
2022-12-25T23:56:51.959Z,963.51
